Time;durP1;ratioP1;P1;durP2;ratioP2;P2;SDS_P1;SDS_P2;PMS_P1;PMS_P2;Temp;Humidity;BMP_temperature;BMP_pressure;BME280_temperature;BME280_humidity;BME280_pressure;Samples;Min_cycle;Max_cycle;Signal;HPM_P1;HPM_P2
2021/12/06 00:01:32;;;;;;;14.07;1.70;;;;;;;;;;5073841;28;20021;-64
2021/12/06 00:04:05;;;;;;;6.47;2.00;;;;;;;;;;5073658;28;20035;-65
2021/12/06 00:06:33;;;;;;;;;;;;;;;;;;5074066;28;20520;-64
2021/12/06 00:08:59;;;;;;;5.80;1.60;;;;;;;;;;5073922;28;20291;-68
2021/12/06 00:11:25;;;;;;;5.47;1.60;;;;;;;;;;5073609;28;20496;-67
2021/12/06 00:13:51;;;;;;;8.15;1.80;;;;;;;;;;5073431;28;20056;-67
2021/12/06 00:16:20;;;;;;;5.78;1.52;;;;;;;;;;5073604;28;20064;-64
2021/12/06 00:18:47;;;;;;;6.57;1.50;;;;;;;;;;5073550;28;20057;-64
2021/12/06 00:21:13;;;;;;;7.55;1.70;;;;;;;;;;5073355;28;20024;-68
2021/12/06 00:23:39;;;;;;;4.78;1.55;;;;;;;;;;5072993;28;20047;-67
2021/12/06 00:26:06;;;;;;;4.00;1.63;;;;;;;;;;5055250;28;20837;-67
2021/12/06 00:28:32;;;;;;;9.30;1.63;;;;;;;;;;5073353;28;20031;-68
2021/12/06 00:30:58;;;;;;;6.15;2.33;;;;;;;;;;5073098;28;20521;-67
2021/12/06 00:33:27;;;;;;;5.20;1.70;;;;;;;;;;5073275;28;20040;-67
2021/12/06 00:36:03;;;;;;;6.20;1.77;;;;;;;;;;5073101;28;20052;-66
2021/12/06 00:38:29;;;;;;;5.30;1.70;;;;;;;;;;5073210;28;20459;-67
2021/12/06 00:40:55;;;;;;;6.40;1.75;;;;;;;;;;5055403;28;20488;-67
2021/12/06 00:43:21;;;;;;;3.85;1.50;;;;;;;;;;5073231;28;20103;-67
2021/12/06 00:45:47;;;;;;;4.03;1.88;;;;;;;;;;5072976;28;20032;-67
2021/12/06 00:48:13;;;;;;;3.00;1.50;;;;;;;;;;5054336;28;20025;-66
2021/12/06 00:50:40;;;;;;;4.40;1.70;;;;;;;;;;5073124;28;20028;-67
2021/12/06 00:53:06;;;;;;;3.13;1.40;;;;;;;;;;5073409;28;20086;-67
2021/12/06 00:55:33;;;;;;;4.45;1.77;;;;;;;;;;5073260;28;20407;-68
2021/12/06 00:57:59;;;;;;;3.78;1.60;;;;;;;;;;5073170;28;20524;-68
2021/12/06 01:00:28;;;;;;;8.25;2.13;;;;;;;;;;5072826;28;20028;-68
2021/12/06 01:02:55;;;;;;;2.47;1.60;;;;;;;;;;5072852;28;20031;-67
2021/12/06 01:05:23;;;;;;;4.97;1.70;;;;;;;;;;5072999;28;20043;-68
2021/12/06 01:07:50;;;;;;;5.00;1.63;;;;;;;;;;5072730;28;20025;-66
2021/12/06 01:10:17;;;;;;;7.10;1.80;;;;;;;;;;5073061;28;20032;-67
2021/12/06 01:12:43;;;;;;;4.40;1.80;;;;;;;;;;5054877;28;20028;-66
2021/12/06 01:15:09;;;;;;;4.57;1.83;;;;;;;;;;5052725;28;20044;-66
2021/12/06 01:17:36;;;;;;;5.78;1.55;;;;;;;;;;5052634;28;20021;-65
2021/12/06 01:20:05;;;;;;;6.47;1.83;;;;;;;;;;5034717;28;20052;-64
2021/12/06 01:22:56;;;;;;;8.57;1.90;;;;;;;;;;5052176;28;20021;-66
2021/12/06 01:25:28;;;;;;;7.50;2.00;;;;;;;;;;5051781;28;20377;-66
2021/12/06 01:30:36;;;;;;;4.93;1.85;;;;;;;;;;5052797;28;20048;-66
2021/12/06 01:41:09;;;;;;;6.82;2.08;;;;;;;;;;5053037;28;20032;-66
2021/12/06 01:43:36;;;;;;;7.45;2.03;;;;;;;;;;5052980;28;20029;-66
2021/12/06 01:46:02;;;;;;;5.82;1.70;;;;;;;;;;5052514;28;20048;-67
2021/12/06 01:48:29;;;;;;;9.15;2.08;;;;;;;;;;5052673;28;20031;-67
2021/12/06 01:50:58;;;;;;;6.03;1.77;;;;;;;;;;5052453;28;20565;-63
2021/12/06 01:53:24;;;;;;;5.57;2.00;;;;;;;;;;5052483;28;20116;-67
2021/12/06 01:55:50;;;;;;;8.90;1.90;;;;;;;;;;5033277;28;20152;-66
2021/12/06 01:58:16;;;;;;;5.50;1.80;;;;;;;;;;5032453;28;20368;-67
2021/12/06 02:00:51;;;;;;;5.18;1.77;;;;;;;;;;5034414;28;20111;-66
2021/12/06 02:03:17;;;;;;;5.28;1.90;;;;;;;;;;5036509;28;20231;-67
2021/12/06 02:05:45;;;;;;;6.18;2.13;;;;;;;;;;5036238;28;20021;-65
2021/12/06 02:08:11;;;;;;;3.50;1.60;;;;;;;;;;5036246;28;20754;-67
2021/12/06 02:10:38;;;;;;;2.95;1.80;;;;;;;;;;5036408;28;20155;-67
2021/12/06 02:13:05;;;;;;;7.78;1.90;;;;;;;;;;5038985;28;20120;-68
2021/12/06 02:15:46;;;;;;;2.88;1.50;;;;;;;;;;5056093;28;20098;-68
2021/12/06 02:18:27;;;;;;;4.88;1.70;;;;;;;;;;5056107;28;20013;-66
2021/12/06 02:21:02;;;;;;;3.85;1.58;;;;;;;;;;5038215;28;20033;-69
2021/12/06 02:23:29;;;;;;;4.82;1.80;;;;;;;;;;5038257;28;20078;-69
2021/12/06 02:25:55;;;;;;;2.25;1.60;;;;;;;;;;5070821;28;20032;-69
2021/12/06 02:28:21;;;;;;;1.77;1.60;;;;;;;;;;5096788;28;20037;-68
2021/12/06 02:30:47;;;;;;;2.03;1.48;;;;;;;;;;5096165;28;20477;-69
2021/12/06 02:33:13;;;;;;;1.75;1.30;;;;;;;;;;5095998;28;20026;-67
2021/12/06 02:35:39;;;;;;;2.60;1.67;;;;;;;;;;5096020;28;20027;-68
2021/12/06 02:38:07;;;;;;;4.07;1.33;;;;;;;;;;5077691;28;20506;-69
2021/12/06 02:40:34;;;;;;;2.75;1.38;;;;;;;;;;5096071;28;20371;-67
2021/12/06 02:43:02;;;;;;;1.75;1.38;;;;;;;;;;5096051;28;20019;-69
2021/12/06 02:45:28;;;;;;;5.25;1.77;;;;;;;;;;5060275;28;20024;-69
2021/12/06 02:47:56;;;;;;;10.25;1.85;;;;;;;;;;5075734;28;20024;-67
2021/12/06 02:50:24;;;;;;;2.58;1.45;;;;;;;;;;5075477;28;20051;-67
2021/12/06 02:52:50;;;;;;;4.15;1.70;;;;;;;;;;5057469;28;20450;-66
2021/12/06 02:55:36;;;;;;;4.88;1.65;;;;;;;;;;5057155;28;20032;-66
2021/12/06 02:58:46;;;;;;;4.72;1.80;;;;;;;;;;5075436;28;20028;-67
2021/12/06 03:01:14;;;;;;;25.33;1.88;;;;;;;;;;5074220;28;20036;-67
2021/12/06 03:03:40;;;;;;;2.92;1.95;;;;;;;;;;5075061;28;20042;-67
2021/12/06 03:06:06;;;;;;;6.50;1.92;;;;;;;;;;5075001;28;20032;-67
2021/12/06 03:08:36;;;;;;;6.60;2.22;;;;;;;;;;5074777;28;20067;-66
2021/12/06 03:11:03;;;;;;;6.55;2.00;;;;;;;;;;5074700;28;20038;-67
2021/12/06 03:13:29;;;;;;;25.00;1.85;;;;;;;;;;5056678;28;20056;-66
2021/12/06 03:15:55;;;;;;;4.40;1.83;;;;;;;;;;5056698;28;20029;-65
2021/12/06 03:18:21;;;;;;;2.60;1.65;;;;;;;;;;5074659;28;20035;-66
2021/12/06 03:20:47;;;;;;;4.78;1.85;;;;;;;;;;5074667;28;20032;-65
2021/12/06 03:23:13;;;;;;;3.38;1.88;;;;;;;;;;5056618;28;20056;-65
2021/12/06 03:25:39;;;;;;;3.97;1.80;;;;;;;;;;5074659;28;20452;-65
2021/12/06 03:28:04;;;;;;;2.20;1.75;;;;;;;;;;5074415;28;20032;-66
2021/12/06 03:30:31;;;;;;;3.17;1.80;;;;;;;;;;5074543;28;20032;-67
2021/12/06 03:32:57;;;;;;;2.53;1.58;;;;;;;;;;5074421;28;20468;-67
2021/12/06 03:35:23;;;;;;;2.25;1.80;;;;;;;;;;5074628;28;20024;-66
2021/12/06 03:37:49;;;;;;;2.78;1.70;;;;;;;;;;5056470;28;20021;-63
2021/12/06 03:40:15;;;;;;;5.13;1.77;;;;;;;;;;5074257;28;20387;-66
2021/12/06 03:42:41;;;;;;;2.88;2.10;;;;;;;;;;5074705;28;20048;-65
2021/12/06 03:45:07;;;;;;;2.08;1.73;;;;;;;;;;5074070;28;20505;-66
2021/12/06 03:47:34;;;;;;;4.18;1.60;;;;;;;;;;5074163;28;20024;-67
2021/12/06 03:50:00;;;;;;;4.03;1.85;;;;;;;;;;5073970;28;20021;-66
2021/12/06 03:52:26;;;;;;;3.30;1.90;;;;;;;;;;5056148;28;20115;-65
2021/12/06 03:54:53;;;;;;;4.78;2.00;;;;;;;;;;5073942;28;20032;-66
2021/12/06 03:57:20;;;;;;;2.53;1.75;;;;;;;;;;5073296;28;20027;-66
2021/12/06 03:59:46;;;;;;;4.70;2.00;;;;;;;;;;5074097;28;20036;-65
2021/12/06 04:02:12;;;;;;;3.25;1.90;;;;;;;;;;5073707;28;20422;-66
2021/12/06 04:04:39;;;;;;;7.18;1.90;;;;;;;;;;5073765;28;20043;-67
2021/12/06 04:07:07;;;;;;;4.95;1.85;;;;;;;;;;5074363;28;20082;-66
2021/12/06 04:09:33;;;;;;;2.78;2.10;;;;;;;;;;5073944;28;20063;-67
2021/12/06 04:11:59;;;;;;;1.70;1.60;;;;;;;;;;5073791;28;20056;-66
2021/12/06 04:14:25;;;;;;;1.88;1.70;;;;;;;;;;5073101;28;20052;-66
2021/12/06 04:16:51;;;;;;;4.15;2.13;;;;;;;;;;5073640;28;20031;-67
2021/12/06 04:19:18;;;;;;;1.70;1.50;;;;;;;;;;5073396;28;20372;-67
2021/12/06 04:21:44;;;;;;;3.20;1.98;;;;;;;;;;5073560;28;20025;-65
2021/12/06 04:24:10;;;;;;;2.08;1.40;;;;;;;;;;5072946;28;20032;-66
2021/12/06 04:26:37;;;;;;;2.40;1.55;;;;;;;;;;5073303;28;20044;-66
2021/12/06 04:29:03;;;;;;;3.78;1.75;;;;;;;;;;5073264;28;20111;-67
2021/12/06 04:31:31;;;;;;;5.55;1.75;;;;;;;;;;5064580;28;20024;-66
2021/12/06 04:33:57;;;;;;;2.85;2.00;;;;;;;;;;5093205;28;20036;-67
2021/12/06 04:36:24;;;;;;;4.78;1.95;;;;;;;;;;5093416;28;20149;-67
2021/12/06 04:38:50;;;;;;;6.05;2.13;;;;;;;;;;5093265;28;20027;-67
2021/12/06 04:41:16;;;;;;;2.40;1.75;;;;;;;;;;5093367;28;20028;-66
2021/12/06 04:43:42;;;;;;;4.82;1.90;;;;;;;;;;5093298;28;20387;-66
2021/12/06 04:46:08;;;;;;;1.92;1.67;;;;;;;;;;5093569;28;20490;-65
2021/12/06 04:48:34;;;;;;;3.08;1.73;;;;;;;;;;5075270;28;20038;-67
2021/12/06 04:51:01;;;;;;;3.30;1.88;;;;;;;;;;5084197;28;20024;-66
2021/12/06 04:53:29;;;;;;;2.25;1.85;;;;;;;;;;5072982;28;20056;-66
2021/12/06 04:56:00;;;;;;;3.90;1.85;;;;;;;;;;5072961;28;20425;-65
2021/12/06 04:58:31;;;;;;;5.87;1.73;;;;;;;;;;5073044;28;20060;-67
2021/12/06 05:01:07;;;;;;;3.92;1.75;;;;;;;;;;5073208;28;20028;-67
2021/12/06 05:03:33;;;;;;;2.42;2.03;;;;;;;;;;5053013;28;20029;-68
2021/12/06 05:06:06;;;;;;;1.90;1.70;;;;;;;;;;5035041;28;20107;-67
2021/12/06 05:08:38;;;;;;;3.17;2.00;;;;;;;;;;5052969;28;20036;-66
2021/12/06 05:11:05;;;;;;;2.90;2.03;;;;;;;;;;5053178;28;20076;-67
2021/12/06 05:13:32;;;;;;;2.90;1.98;;;;;;;;;;5052596;28;20444;-67
2021/12/06 05:15:58;;;;;;;3.28;1.83;;;;;;;;;;5034913;28;20485;-67
2021/12/06 05:18:24;;;;;;;10.57;2.22;;;;;;;;;;5058180;28;20028;-67
2021/12/06 05:20:51;;;;;;;4.18;2.00;;;;;;;;;;5072953;28;20028;-66
2021/12/06 05:23:17;;;;;;;12.10;2.53;;;;;;;;;;5072780;28;20021;-67
2021/12/06 05:25:43;;;;;;;2.88;1.85;;;;;;;;;;5073002;28;20154;-64
2021/12/06 05:28:09;;;;;;;14.60;2.20;;;;;;;;;;5055072;28;20054;-67
2021/12/06 05:30:37;;;;;;;3.83;1.80;;;;;;;;;;5072753;28;20056;-67
2021/12/06 05:33:04;;;;;;;10.93;1.95;;;;;;;;;;5072170;28;20040;-67
2021/12/06 05:35:30;;;;;;;7.32;2.10;;;;;;;;;;5074133;28;20427;-68
2021/12/06 05:37:57;;;;;;;6.45;2.00;;;;;;;;;;5076774;28;20056;-64
2021/12/06 05:40:28;;;;;;;7.72;2.38;;;;;;;;;;5076562;28;20042;-66
2021/12/06 05:42:55;;;;;;;5.53;1.95;;;;;;;;;;5076775;28;20020;-67
2021/12/06 05:45:23;;;;;;;10.02;2.95;;;;;;;;;;5076540;28;20031;-67
2021/12/06 05:47:49;;;;;;;10.45;2.20;;;;;;;;;;5058787;28;20021;-68
2021/12/06 05:50:15;;;;;;;24.40;2.90;;;;;;;;;;5076483;28;20035;-68
2021/12/06 05:52:41;;;;;;;8.77;2.35;;;;;;;;;;5076698;28;20028;-69
2021/12/06 05:55:08;;;;;;;6.03;2.22;;;;;;;;;;5058551;28;20040;-67
2021/12/06 05:57:34;;;;;;;4.82;2.65;;;;;;;;;;5058673;28;20040;-69
2021/12/06 06:00:00;;;;;;;4.20;2.40;;;;;;;;;;5058519;28;20108;-69
2021/12/06 06:02:26;;;;;;;4.72;2.90;;;;;;;;;;5076452;28;20387;-67
2021/12/06 06:04:52;;;;;;;3.13;2.80;;;;;;;;;;5075578;28;20025;-69
2021/12/06 06:07:18;;;;;;;5.80;2.38;;;;;;;;;;5056381;28;20409;-68
2021/12/06 06:09:44;;;;;;;5.53;3.00;;;;;;;;;;5056322;28;20033;-64
2021/12/06 06:12:10;;;;;;;25.52;2.85;;;;;;;;;;5055933;28;20028;-62
2021/12/06 06:14:36;;;;;;;12.35;2.58;;;;;;;;;;5069979;28;20115;-62
2021/12/06 06:17:14;;;;;;;9.57;2.45;;;;;;;;;;5075460;28;20037;-62
2021/12/06 06:19:45;;;;;;;9.25;2.67;;;;;;;;;;5075621;28;20476;-67
2021/12/06 06:22:12;;;;;;;7.13;2.70;;;;;;;;;;5057882;28;20539;-65
2021/12/06 06:24:38;;;;;;;7.07;3.00;;;;;;;;;;5075704;28;20036;-67
2021/12/06 06:27:04;;;;;;;6.88;2.53;;;;;;;;;;5075671;28;20070;-67
2021/12/06 06:29:31;;;;;;;6.22;2.90;;;;;;;;;;5075949;28;20030;-68
2021/12/06 06:31:57;;;;;;;5.45;2.80;;;;;;;;;;5075707;28;20035;-66
2021/12/06 06:34:23;;;;;;;8.52;2.90;;;;;;;;;;5075102;28;20475;-66
2021/12/06 06:36:50;;;;;;;6.28;3.35;;;;;;;;;;5075725;28;20028;-68
2021/12/06 06:39:19;;;;;;;3.45;3.00;;;;;;;;;;5075521;28;20029;-65
2021/12/06 06:41:45;;;;;;;5.55;3.35;;;;;;;;;;5075565;28;20029;-65
2021/12/06 06:44:11;;;;;;;5.13;3.08;;;;;;;;;;5075366;28;20527;-68
2021/12/06 06:46:37;;;;;;;3.90;3.45;;;;;;;;;;5074173;28;20059;-67
2021/12/06 06:49:03;;;;;;;3.58;3.28;;;;;;;;;;5075173;28;20068;-65
2021/12/06 06:51:29;;;;;;;7.38;3.83;;;;;;;;;;5075370;28;20051;-68
2021/12/06 06:53:56;;;;;;;8.80;3.60;;;;;;;;;;5075767;28;20062;-69
2021/12/06 06:56:22;;;;;;;6.10;3.17;;;;;;;;;;5075572;28;20104;-66
2021/12/06 06:58:50;;;;;;;12.88;3.10;;;;;;;;;;5075412;28;20064;-64
2021/12/06 07:01:16;;;;;;;8.45;3.10;;;;;;;;;;5074836;28;20029;-66
2021/12/06 07:03:42;;;;;;;6.57;3.72;;;;;;;;;;5074588;28;20112;-65
2021/12/06 07:06:08;;;;;;;8.60;4.05;;;;;;;;;;5074882;28;20169;-67
2021/12/06 07:08:34;;;;;;;8.95;4.10;;;;;;;;;;5056722;28;20016;-65
2021/12/06 07:11:01;;;;;;;9.50;4.43;;;;;;;;;;5074791;28;20028;-67
2021/12/06 07:13:27;;;;;;;12.10;4.95;;;;;;;;;;5074214;28;20048;-66
2021/12/06 07:15:53;;;;;;;10.55;5.28;;;;;;;;;;5074423;28;20024;-66
2021/12/06 07:18:19;;;;;;;11.73;5.35;;;;;;;;;;5074314;28;20024;-66
2021/12/06 07:20:46;;;;;;;9.98;5.05;;;;;;;;;;5074195;28;20040;-60
2021/12/06 07:23:11;;;;;;;7.55;4.10;;;;;;;;;;5074302;28;20096;-66
2021/12/06 07:25:37;;;;;;;7.88;4.60;;;;;;;;;;5049802;28;20192;-67
2021/12/06 07:28:06;;;;;;;7.93;5.22;;;;;;;;;;5074227;28;20024;-66
2021/12/06 07:30:32;;;;;;;8.27;5.15;;;;;;;;;;5074043;28;20039;-66
2021/12/06 07:32:58;;;;;;;11.05;5.15;;;;;;;;;;5073743;28;20028;-67
2021/12/06 07:35:26;;;;;;;17.73;5.60;;;;;;;;;;5073524;28;20036;-67
2021/12/06 07:37:52;;;;;;;8.43;5.90;;;;;;;;;;5073868;28;20051;-66
2021/12/06 07:40:18;;;;;;;9.25;5.60;;;;;;;;;;5074174;28;20019;-66
2021/12/06 07:42:45;;;;;;;6.90;6.10;;;;;;;;;;5074208;28;20027;-63
2021/12/06 07:45:12;;;;;;;15.48;5.95;;;;;;;;;;5073488;28;20020;-65
2021/12/06 07:47:38;;;;;;;9.15;6.57;;;;;;;;;;5074022;28;20024;-66
2021/12/06 07:50:09;;;;;;;8.23;6.15;;;;;;;;;;5073333;28;20070;-67
2021/12/06 07:52:35;;;;;;;8.43;6.40;;;;;;;;;;5074112;28;20077;-67
2021/12/06 07:55:02;;;;;;;7.93;6.53;;;;;;;;;;5073812;28;20036;-66
2021/12/06 07:57:28;;;;;;;6.85;6.07;;;;;;;;;;5073405;28;20374;-67
2021/12/06 07:59:54;;;;;;;6.85;6.07;;;;;;;;;;5073461;28;20017;-67
2021/12/06 08:02:20;;;;;;;10.60;6.43;;;;;;;;;;5073165;28;20035;-67
2021/12/06 08:04:48;;;;;;;8.05;6.35;;;;;;;;;;5073434;28;20360;-65
2021/12/06 08:07:15;;;;;;;7.35;6.10;;;;;;;;;;5072774;28;20024;-65
2021/12/06 08:09:41;;;;;;;7.10;6.40;;;;;;;;;;5072975;28;20171;-67
2021/12/06 08:12:07;;;;;;;8.25;6.55;;;;;;;;;;5073225;28;20036;-67
2021/12/06 08:14:33;;;;;;;7.15;6.45;;;;;;;;;;5072925;28;20045;-66
2021/12/06 08:16:59;;;;;;;8.27;6.65;;;;;;;;;;5073081;28;20031;-67
2021/12/06 08:19:25;;;;;;;8.25;6.97;;;;;;;;;;5072913;28;20480;-66
2021/12/06 08:21:51;;;;;;;7.97;7.03;;;;;;;;;;5072318;28;20024;-67
2021/12/06 08:24:17;;;;;;;10.10;7.45;;;;;;;;;;5072907;28;20115;-66
2021/12/06 08:26:44;;;;;;;7.72;6.95;;;;;;;;;;5072853;28;20029;-63
2021/12/06 08:29:13;;;;;;;7.80;6.72;;;;;;;;;;5072752;28;20028;-66
2021/12/06 08:31:41;;;;;;;9.40;7.97;;;;;;;;;;5073265;28;20050;-67
2021/12/06 08:34:07;;;;;;;11.07;8.27;;;;;;;;;;5072946;28;20037;-66
2021/12/06 08:36:33;;;;;;;10.63;8.27;;;;;;;;;;5072354;28;20031;-66
2021/12/06 08:38:59;;;;;;;9.95;8.13;;;;;;;;;;5073431;28;20024;-66
2021/12/06 08:41:27;;;;;;;9.27;7.80;;;;;;;;;;5055062;28;20028;-66
2021/12/06 08:43:54;;;;;;;10.40;8.40;;;;;;;;;;5072821;28;20024;-66
2021/12/06 08:46:22;;;;;;;10.55;8.73;;;;;;;;;;5054489;28;20029;-67
2021/12/06 08:48:48;;;;;;;11.85;9.10;;;;;;;;;;5072502;28;20028;-67
2021/12/06 08:51:35;;;;;;;12.40;9.35;;;;;;;;;;5072418;28;20029;-67
2021/12/06 08:54:01;;;;;;;13.05;9.38;;;;;;;;;;5072147;28;20037;-66
2021/12/06 08:56:28;;;;;;;12.45;9.25;;;;;;;;;;5072597;28;20464;-67
2021/12/06 08:58:54;;;;;;;11.93;9.10;;;;;;;;;;5072464;28;20032;-67
2021/12/06 09:01:21;;;;;;;16.00;9.93;;;;;;;;;;5072383;28;20089;-66
2021/12/06 09:03:47;;;;;;;12.95;9.70;;;;;;;;;;5071672;28;20024;-66
2021/12/06 09:06:13;;;;;;;12.70;9.52;;;;;;;;;;5072766;28;20044;-65
2021/12/06 09:08:41;;;;;;;12.85;9.70;;;;;;;;;;5054475;28;20032;-66
2021/12/06 09:11:07;;;;;;;13.43;10.10;;;;;;;;;;5072338;28;20016;-66
2021/12/06 09:13:33;;;;;;;12.50;9.63;;;;;;;;;;5071761;28;20035;-66
2021/12/06 09:16:02;;;;;;;13.75;10.32;;;;;;;;;;5072516;28;20025;-66
2021/12/06 09:18:29;;;;;;;12.32;9.23;;;;;;;;;;5054602;28;20136;-66
2021/12/06 09:20:56;;;;;;;11.07;8.43;;;;;;;;;;5072327;28;20033;-65
2021/12/06 09:23:22;;;;;;;9.60;7.95;;;;;;;;;;5072406;28;20021;-66
2021/12/06 09:25:48;;;;;;;11.77;7.60;;;;;;;;;;5072345;28;20029;-65
2021/12/06 09:28:16;;;;;;;11.88;8.23;;;;;;;;;;5072318;28;20024;-65
2021/12/06 09:30:44;;;;;;;10.80;8.05;;;;;;;;;;5072330;28;20107;-65
2021/12/06 09:33:11;;;;;;;19.83;9.02;;;;;;;;;;5088901;28;20035;-66
2021/12/06 09:35:40;;;;;;;17.60;8.50;;;;;;;;;;5092299;28;20063;-66
2021/12/06 09:38:07;;;;;;;13.55;8.68;;;;;;;;;;5092171;28;20082;-67
2021/12/06 09:40:34;;;;;;;19.00;8.48;;;;;;;;;;5092692;28;20028;-66
2021/12/06 09:43:01;;;;;;;17.60;8.55;;;;;;;;;;5092438;28;20025;-66
2021/12/06 09:45:28;;;;;;;11.75;8.52;;;;;;;;;;5074732;28;20081;-66
2021/12/06 09:47:55;;;;;;;20.67;8.75;;;;;;;;;;5091586;28;20055;-65
2021/12/06 09:50:24;;;;;;;13.70;9.02;;;;;;;;;;5089017;28;20024;-66
2021/12/06 09:52:50;;;;;;;15.23;9.05;;;;;;;;;;5072423;28;20028;-67
2021/12/06 09:55:16;;;;;;;15.75;10.82;;;;;;;;;;5072409;28;20047;-65
2021/12/06 09:57:43;;;;;;;13.02;9.75;;;;;;;;;;5054273;28;20063;-63
2021/12/06 10:00:09;;;;;;;12.60;9.40;;;;;;;;;;5054330;28;20052;-66
2021/12/06 10:02:36;;;;;;;12.77;9.65;;;;;;;;;;5072389;28;20391;-67
2021/12/06 10:05:02;;;;;;;12.77;9.40;;;;;;;;;;5054447;28;20028;-65
2021/12/06 10:07:28;;;;;;;14.18;10.00;;;;;;;;;;5072162;28;20029;-67
2021/12/06 10:09:54;;;;;;;14.32;10.27;;;;;;;;;;5072243;28;20073;-66
2021/12/06 10:12:21;;;;;;;16.67;10.82;;;;;;;;;;5072135;28;20025;-66
2021/12/06 10:14:49;;;;;;;14.13;10.05;;;;;;;;;;5046708;28;20198;-65
2021/12/06 10:17:16;;;;;;;13.93;10.38;;;;;;;;;;5052112;28;20029;-66
2021/12/06 10:19:43;;;;;;;14.23;10.23;;;;;;;;;;5068053;28;20376;-66
2021/12/06 10:22:09;;;;;;;15.90;11.18;;;;;;;;;;5074314;28;20032;-66
2021/12/06 10:24:35;;;;;;;14.38;10.63;;;;;;;;;;5075789;28;20025;-65
2021/12/06 10:27:19;;;;;;;16.90;12.05;;;;;;;;;;5076051;28;20021;-70
2021/12/06 10:29:47;;;;;;;14.02;10.85;;;;;;;;;;5057918;28;20020;-62
2021/12/06 10:32:18;;;;;;;14.95;11.25;;;;;;;;;;5075779;28;20025;-66
2021/12/06 10:34:49;;;;;;;15.85;11.05;;;;;;;;;;5057346;28;20036;-62
2021/12/06 10:37:33;;;;;;;14.43;10.70;;;;;;;;;;5075061;28;20468;-64
2021/12/06 10:39:59;;;;;;;17.70;11.10;;;;;;;;;;5074826;28;20029;-64
2021/12/06 10:42:30;;;;;;;15.98;11.60;;;;;;;;;;5056746;28;20032;-63
2021/12/06 10:45:00;;;;;;;16.13;11.27;;;;;;;;;;5074707;28;20032;-65
2021/12/06 10:47:26;;;;;;;16.40;11.95;;;;;;;;;;5074988;28;20025;-63
2021/12/06 10:49:52;;;;;;;17.00;11.43;;;;;;;;;;5056541;28;20062;-63
2021/12/06 10:52:27;;;;;;;16.23;11.93;;;;;;;;;;5074752;28;20509;-64
2021/12/06 10:54:53;;;;;;;16.80;12.75;;;;;;;;;;5074689;28;20032;-61
2021/12/06 10:57:20;;;;;;;16.67;12.48;;;;;;;;;;5074765;28;20029;-63
2021/12/06 10:59:46;;;;;;;16.65;11.45;;;;;;;;;;5074637;28;20032;-63
2021/12/06 11:02:13;;;;;;;16.38;12.30;;;;;;;;;;5074552;28;20025;-64
2021/12/06 11:04:41;;;;;;;15.85;12.18;;;;;;;;;;5074653;28;20070;-65
2021/12/06 11:07:09;;;;;;;17.35;12.75;;;;;;;;;;5073980;28;20028;-66
2021/12/06 11:09:36;;;;;;;17.50;12.63;;;;;;;;;;5074683;28;20028;-64
2021/12/06 11:12:04;;;;;;;18.30;12.80;;;;;;;;;;5074500;28;20029;-64
2021/12/06 11:14:32;;;;;;;18.88;12.70;;;;;;;;;;5063845;28;20049;-65
2021/12/06 11:17:00;;;;;;;17.65;12.45;;;;;;;;;;5054443;28;20021;-66
2021/12/06 11:19:28;;;;;;;16.00;12.65;;;;;;;;;;5054179;28;20077;-65
2021/12/06 11:21:56;;;;;;;16.05;12.43;;;;;;;;;;5054085;28;20044;-61
2021/12/06 11:24:39;;;;;;;15.05;11.52;;;;;;;;;;5054280;28;20485;-66
2021/12/06 11:27:21;;;;;;;17.30;12.32;;;;;;;;;;5053808;28;20060;-65
2021/12/06 11:29:49;;;;;;;17.17;12.38;;;;;;;;;;5053737;28;20518;-64
2021/12/06 11:32:17;;;;;;;17.70;12.18;;;;;;;;;;5053650;28;20052;-65
2021/12/06 11:34:50;;;;;;;17.63;12.02;;;;;;;;;;5053492;28;20029;-61
2021/12/06 11:37:22;;;;;;;17.08;11.98;;;;;;;;;;5053755;28;20057;-65
2021/12/06 11:39:50;;;;;;;17.90;11.93;;;;;;;;;;5053951;28;20025;-63
2021/12/06 11:42:16;;;;;;;16.45;12.05;;;;;;;;;;5035172;28;20204;-63
2021/12/06 11:44:43;;;;;;;16.67;12.07;;;;;;;;;;5053972;28;20025;-65
2021/12/06 11:47:10;;;;;;;14.80;11.23;;;;;;;;;;5053913;28;20502;-63
2021/12/06 11:49:36;;;;;;;22.40;12.57;;;;;;;;;;5053887;28;20051;-63
2021/12/06 11:52:03;;;;;;;15.93;11.82;;;;;;;;;;5053378;28;20017;-63
2021/12/06 11:54:35;;;;;;;14.68;11.48;;;;;;;;;;5053256;28;20116;-64
2021/12/06 11:57:08;;;;;;;15.88;12.02;;;;;;;;;;5034624;28;20384;-64
2021/12/06 11:59:34;;;;;;;15.48;11.40;;;;;;;;;;5050580;28;20392;-65
2021/12/06 12:02:00;;;;;;;15.48;11.43;;;;;;;;;;5052303;28;20028;-64
2021/12/06 12:04:29;;;;;;;15.38;10.85;;;;;;;;;;5052593;28;20110;-64
2021/12/06 12:06:56;;;;;;;16.30;11.60;;;;;;;;;;5052902;28;20092;-65
2021/12/06 12:09:28;;;;;;;16.73;11.98;;;;;;;;;;5050152;28;20103;-63
2021/12/06 12:12:12;;;;;;;16.40;11.48;;;;;;;;;;5052943;28;20017;-65
2021/12/06 12:14:38;;;;;;;15.82;11.70;;;;;;;;;;5044010;28;20098;-65
2021/12/06 12:17:06;;;;;;;17.15;11.82;;;;;;;;;;5053149;28;20029;-64
2021/12/06 12:19:33;;;;;;;16.00;11.55;;;;;;;;;;5053172;28;20033;-64
2021/12/06 12:21:59;;;;;;;18.08;12.13;;;;;;;;;;5035050;28;20032;-64
2021/12/06 12:24:25;;;;;;;15.55;11.15;;;;;;;;;;5052915;28;20036;-66
2021/12/06 12:27:02;;;;;;;15.82;11.18;;;;;;;;;;5035098;28;20480;-65
2021/12/06 12:29:28;;;;;;;16.30;11.55;;;;;;;;;;5052934;28;20025;-66
2021/12/06 12:31:59;;;;;;;17.98;11.70;;;;;;;;;;5062811;28;20031;-63
2021/12/06 12:34:26;;;;;;;15.40;10.55;;;;;;;;;;5072652;28;20365;-64
2021/12/06 12:36:53;;;;;;;15.52;11.30;;;;;;;;;;5073409;28;20017;-65
2021/12/06 12:39:20;;;;;;;14.48;10.85;;;;;;;;;;5073197;28;20060;-65
2021/12/06 12:41:57;;;;;;;15.35;10.95;;;;;;;;;;5073109;28;20092;-61
2021/12/06 12:44:23;;;;;;;18.52;11.27;;;;;;;;;;5054692;28;20043;-65
2021/12/06 12:46:52;;;;;;;16.23;10.93;;;;;;;;;;5073016;28;20021;-65
2021/12/06 12:49:20;;;;;;;15.63;11.07;;;;;;;;;;5073325;28;20037;-64
2021/12/06 12:51:48;;;;;;;15.35;10.68;;;;;;;;;;5072830;28;20106;-61
2021/12/06 12:54:20;;;;;;;16.35;10.80;;;;;;;;;;5073093;28;20082;-66
2021/12/06 12:56:51;;;;;;;15.13;10.65;;;;;;;;;;5072965;28;20467;-62
2021/12/06 12:59:20;;;;;;;16.77;10.88;;;;;;;;;;5072223;28;20063;-64
2021/12/06 13:02:06;;;;;;;16.73;10.27;;;;;;;;;;5073042;28;20100;-64
2021/12/06 13:04:52;;;;;;;15.73;11.27;;;;;;;;;;5073099;28;20021;-69
2021/12/06 13:07:18;;;;;;;15.35;10.30;;;;;;;;;;5073245;28;20104;-68
2021/12/06 13:09:43;;;;;;;16.10;10.57;;;;;;;;;;5055125;28;20119;-64
2021/12/06 13:12:11;;;;;;;16.20;10.07;;;;;;;;;;5073234;28;20089;-67
2021/12/06 13:14:52;;;;;;;15.38;10.02;;;;;;;;;;5071816;28;20036;-68
2021/12/06 13:17:30;;;;;;;15.55;10.13;;;;;;;;;;5073200;28;20025;-69
2021/12/06 13:20:09;;;;;;;15.75;10.32;;;;;;;;;;5073096;28;20083;-67
2021/12/06 13:22:47;;;;;;;16.75;10.30;;;;;;;;;;5073234;28;20041;-65
2021/12/06 13:25:14;;;;;;;14.57;10.10;;;;;;;;;;5072927;28;20033;-66
2021/12/06 13:27:41;;;;;;;16.35;10.18;;;;;;;;;;5072668;28;20515;-63
2021/12/06 13:30:21;;;;;;;14.68;9.95;;;;;;;;;;5072329;28;20394;-64
2021/12/06 13:32:48;;;;;;;14.13;9.50;;;;;;;;;;5072700;28;20056;-63
2021/12/06 13:35:26;;;;;;;16.58;9.88;;;;;;;;;;5072387;28;20472;-65
2021/12/06 13:37:59;;;;;;;14.48;9.50;;;;;;;;;;5054506;28;20039;-65
2021/12/06 13:40:25;;;;;;;14.68;10.00;;;;;;;;;;5072635;28;20040;-66
2021/12/06 13:42:51;;;;;;;14.10;9.70;;;;;;;;;;5072428;28;20021;-65
2021/12/06 13:45:22;;;;;;;14.40;9.23;;;;;;;;;;5071944;28;20035;-66
2021/12/06 13:47:49;;;;;;;13.07;9.57;;;;;;;;;;5072397;28;20464;-66
2021/12/06 13:50:17;;;;;;;12.13;9.30;;;;;;;;;;5072363;28;20512;-65
2021/12/06 13:52:51;;;;;;;13.68;9.32;;;;;;;;;;5072464;28;20461;-64
2021/12/06 13:55:18;;;;;;;14.07;9.30;;;;;;;;;;5072283;28;20047;-64
2021/12/06 13:57:46;;;;;;;11.98;8.90;;;;;;;;;;5075687;28;20467;-63
2021/12/06 14:00:13;;;;;;;14.85;9.80;;;;;;;;;;5076154;28;20044;-65
2021/12/06 14:02:39;;;;;;;12.85;9.30;;;;;;;;;;5075976;28;20169;-66
2021/12/06 14:05:05;;;;;;;12.93;9.48;;;;;;;;;;5076227;28;20029;-65
2021/12/06 14:07:32;;;;;;;13.52;9.15;;;;;;;;;;5075746;28;20031;-64
2021/12/06 14:09:58;;;;;;;11.90;8.55;;;;;;;;;;5075688;28;20071;-66
2021/12/06 14:12:32;;;;;;;12.30;9.00;;;;;;;;;;5075604;28;20104;-65
2021/12/06 14:15:07;;;;;;;12.75;8.50;;;;;;;;;;5075299;28;20127;-66
2021/12/06 14:17:33;;;;;;;12.65;9.13;;;;;;;;;;5075332;28;20443;-64
2021/12/06 14:20:00;;;;;;;13.50;8.32;;;;;;;;;;5075174;28;20464;-65
2021/12/06 14:22:27;;;;;;;12.50;8.40;;;;;;;;;;5075923;28;20089;-66
2021/12/06 14:24:54;;;;;;;12.40;8.63;;;;;;;;;;5057443;28;20024;-65
2021/12/06 14:27:24;;;;;;;12.93;8.68;;;;;;;;;;5075151;28;20062;-65
2021/12/06 14:29:51;;;;;;;9.73;7.60;;;;;;;;;;5075353;28;20445;-64
2021/12/06 14:32:17;;;;;;;10.45;7.97;;;;;;;;;;5075476;28;20093;-65
2021/12/06 14:34:44;;;;;;;9.98;7.28;;;;;;;;;;5074469;28;20464;-61
2021/12/06 14:37:11;;;;;;;10.68;7.78;;;;;;;;;;5075113;28;20038;-66
2021/12/06 14:39:38;;;;;;;9.35;7.20;;;;;;;;;;5075063;28;20090;-67
2021/12/06 14:42:08;;;;;;;10.85;7.65;;;;;;;;;;5074955;28;20059;-65
2021/12/06 14:44:43;;;;;;;9.60;7.05;;;;;;;;;;5075019;28;20029;-67
2021/12/06 14:47:11;;;;;;;8.77;6.80;;;;;;;;;;5074853;28;20020;-66
2021/12/06 14:49:40;;;;;;;10.15;6.85;;;;;;;;;;5074848;28;20418;-65